Time;durP1;ratioP1;P1;durP2;ratioP2;P2;SDS_P1;SDS_P2;PMS_P1;PMS_P2;Temp;Humidity;BMP_temperature;BMP_pressure;BME280_temperature;BME280_humidity;BME280_pressure;Samples;Min_cycle;Max_cycle;Signal;HPM_P1;HPM_P2
2022/07/06 00:01:16;;;;;;;3.67;2.60;;;17.80;39.40;;;;;;5029759;28;45884;-60
2022/07/06 00:03:42;;;;;;;7.07;2.07;;;17.70;39.60;;;;;;5026782;28;46342;-61
2022/07/06 00:06:08;;;;;;;6.57;2.50;;;17.70;39.70;;;;;;5029701;28;47161;-62
2022/07/06 00:08:33;;;;;;;3.40;2.07;;;17.60;39.90;;;;;;5029075;28;46521;-61
2022/07/06 00:11:00;;;;;;;8.23;2.40;;;17.50;40.00;;;;;;5031833;28;46404;-61
2022/07/06 00:13:26;;;;;;;4.60;3.10;;;17.40;40.30;;;;;;5038069;28;46020;-61
2022/07/06 00:15:52;;;;;;;3.73;2.10;;;17.30;40.70;;;;;;5029805;28;46317;-60
2022/07/06 00:18:17;;;;;;;4.83;2.43;;;17.20;41.10;;;;;;5031452;28;47316;-61
2022/07/06 00:20:43;;;;;;;7.70;2.17;;;17.00;41.60;;;;;;5035792;28;46421;-62
2022/07/06 00:23:09;;;;;;;3.47;2.00;;;16.90;42.00;;;;;;5030337;28;46510;-63
2022/07/06 00:25:34;;;;;;;3.93;1.97;;;16.90;42.20;;;;;;5034368;28;47161;-61
2022/07/06 00:28:00;;;;;;;4.50;2.00;;;16.80;42.20;;;;;;5032656;28;46258;-61
2022/07/06 00:30:25;;;;;;;5.87;2.50;;;16.80;42.30;;;;;;5035223;28;45794;-61
2022/07/06 00:32:51;;;;;;;4.27;2.17;;;16.80;42.30;;;;;;5033207;28;46414;-61
2022/07/06 00:35:16;;;;;;;4.70;2.00;;;16.80;42.30;;;;;;5033205;28;46536;-61
2022/07/06 00:37:42;;;;;;;9.20;2.33;;;16.70;42.30;;;;;;5036941;28;46525;-62
2022/07/06 00:40:08;;;;;;;3.93;2.00;;;16.70;42.40;;;;;;5031745;28;46331;-61
2022/07/06 00:42:45;;;;;;;4.03;2.23;;;16.70;42.40;;;;;;5032768;28;46454;-61
2022/07/06 00:45:12;;;;;;;6.90;2.27;;;16.60;42.90;;;;;;5035100;28;46650;-63
2022/07/06 00:47:39;;;;;;;6.03;2.10;;;16.50;42.70;;;;;;5038876;28;46435;-61
2022/07/06 00:50:15;;;;;;;4.10;1.83;;;16.50;43.00;;;;;;5032369;28;45826;-61
2022/07/06 00:53:10;;;;;;;3.90;2.07;;;16.40;43.20;;;;;;5033691;28;46313;-61
2022/07/06 00:55:39;;;;;;;3.50;2.10;;;16.40;43.70;;;;;;5030596;28;47031;-61
2022/07/06 00:58:06;;;;;;;10.80;2.60;;;16.30;43.50;;;;;;5031831;28;46482;-61
2022/07/06 01:00:33;;;;;;;4.30;2.67;;;16.20;44.10;;;;;;5030894;28;46432;-62
2022/07/06 01:02:59;;;;;;;3.40;1.90;;;16.10;44.00;;;;;;5035482;28;46420;-61
2022/07/06 01:05:25;;;;;;;5.77;2.90;;;16.10;44.00;;;;;;5032785;28;47465;-62
2022/07/06 01:07:52;;;;;;;4.97;2.80;;;16.10;44.00;;;;;;5034446;28;46307;-61
2022/07/06 01:10:20;;;;;;;3.73;2.30;;;15.90;44.40;;;;;;5032000;28;46421;-62
2022/07/06 01:12:47;;;;;;;3.63;2.17;;;15.90;44.80;;;;;;5034169;28;46391;-62
2022/07/06 01:15:19;;;;;;;5.10;2.50;;;15.90;45.10;;;;;;5034129;28;47208;-62
2022/07/06 01:17:45;;;;;;;3.50;2.40;;;15.80;46.70;;;;;;5032482;28;46438;-62
2022/07/06 01:20:22;;;;;;;5.17;2.57;;;15.80;45.70;;;;;;5035327;28;46499;-63
2022/07/06 01:22:49;;;;;;;4.47;2.50;;;15.70;46.20;;;;;;5031520;28;46410;-62
2022/07/06 01:25:15;;;;;;;5.80;2.30;;;15.60;46.10;;;;;;5034649;28;46708;-62
2022/07/06 01:27:42;;;;;;;7.63;2.60;;;15.60;46.40;;;;;;5033617;28;46585;-62
2022/07/06 01:30:10;;;;;;;5.10;2.10;;;15.60;46.60;;;;;;5032194;28;46472;-61
2022/07/06 01:32:37;;;;;;;4.47;2.67;;;15.60;47.00;;;;;;5029912;28;46701;-61
2022/07/06 01:35:04;;;;;;;4.93;2.83;;;15.50;48.30;;;;;;5031647;28;48266;-62
2022/07/06 01:37:30;;;;;;;5.37;2.70;;;15.50;47.50;;;;;;5032440;28;46605;-62
2022/07/06 01:40:04;;;;;;;9.97;2.80;;;15.50;47.70;;;;;;5033150;28;45864;-61
2022/07/06 01:42:30;;;;;;;7.43;2.50;;;15.40;47.90;;;;;;5031449;28;46264;-61
2022/07/06 01:44:56;;;;;;;3.90;2.60;;;15.50;48.10;;;;;;5031493;28;48262;-61
2022/07/06 01:47:22;;;;;;;3.70;2.60;;;15.40;48.20;;;;;;5029485;28;46379;-62
2022/07/06 01:49:48;;;;;;;4.93;2.37;;;15.40;49.60;;;;;;5028993;28;46439;-62
2022/07/06 01:52:13;;;;;;;9.37;2.80;;;15.40;48.50;;;;;;5031528;28;46601;-60
2022/07/06 01:54:39;;;;;;;6.30;2.80;;;15.40;48.60;;;;;;5029310;28;48292;-63
2022/07/06 01:57:05;;;;;;;5.73;3.00;;;15.40;48.70;;;;;;5032256;28;46472;-60
2022/07/06 01:59:30;;;;;;;6.30;2.23;;;15.40;48.80;;;;;;5028109;28;46758;-61
2022/07/06 02:01:56;;;;;;;4.60;2.30;;;15.40;48.90;;;;;;5031091;28;46387;-62
2022/07/06 02:04:21;;;;;;;5.33;2.60;;;15.30;48.90;;;;;;5029904;28;46543;-61
2022/07/06 02:06:47;;;;;;;4.00;2.60;;;15.40;49.10;;;;;;5031418;28;46542;-61
2022/07/06 02:09:13;;;;;;;5.43;2.90;;;15.30;49.10;;;;;;5031057;28;46494;-61
2022/07/06 02:11:39;;;;;;;4.00;2.63;;;15.30;49.30;;;;;;5028677;28;46541;-61
2022/07/06 02:14:07;;;;;;;6.00;2.73;;;15.30;49.40;;;;;;5029109;28;47354;-62
2022/07/06 02:16:32;;;;;;;5.27;2.60;;;15.30;49.70;;;;;;5028531;28;46491;-60
2022/07/06 02:18:58;;;;;;;4.83;2.83;;;15.20;49.60;;;;;;5029866;28;46487;-60
2022/07/06 02:21:24;;;;;;;5.97;2.70;;;15.20;49.80;;;;;;5030650;28;46675;-60
2022/07/06 02:23:49;;;;;;;5.67;2.57;;;15.20;50.00;;;;;;5027875;28;47281;-60
2022/07/06 02:26:15;;;;;;;4.47;3.13;;;15.20;50.10;;;;;;5028698;28;46445;-60
2022/07/06 02:28:40;;;;;;;3.27;2.30;;;15.10;50.20;;;;;;5026610;28;46378;-61
2022/07/06 02:31:06;;;;;;;4.90;3.10;;;15.10;50.60;;;;;;5044518;28;46496;-60
2022/07/06 02:33:32;;;;;;;7.67;3.40;;;15.10;50.70;;;;;;5028741;28;46051;-60
2022/07/06 02:35:57;;;;;;;8.10;3.40;;;15.00;50.90;;;;;;5028863;28;46473;-61
2022/07/06 02:38:23;;;;;;;8.50;3.83;;;15.00;51.10;;;;;;5031543;28;46479;-60
2022/07/06 02:40:48;;;;;;;9.50;5.63;;;15.00;51.20;;;;;;5025886;28;46656;-59
2022/07/06 02:43:14;;;;;;;7.90;4.17;;;15.00;51.30;;;;;;5029058;28;47187;-63
2022/07/06 02:45:39;;;;;;;10.20;3.87;;;14.90;51.50;;;;;;5034999;28;46336;-60
2022/07/06 02:48:05;;;;;;;10.10;4.07;;;14.90;51.80;;;;;;5033886;28;46338;-62
2022/07/06 02:50:31;;;;;;;6.93;3.80;;;14.90;52.00;;;;;;5027951;28;46470;-61
2022/07/06 02:52:58;;;;;;;5.60;3.37;;;14.80;52.20;;;;;;5032283;28;46508;-61
2022/07/06 02:55:24;;;;;;;5.60;3.97;;;14.80;52.40;;;;;;5031468;28;46445;-60
2022/07/06 02:57:49;;;;;;;8.27;3.70;;;14.80;52.60;;;;;;5029711;28;46777;-61
2022/07/06 03:00:16;;;;;;;8.37;3.97;;;14.70;52.70;;;;;;5030934;28;46468;-60
2022/07/06 03:02:41;;;;;;;8.60;3.27;;;14.70;52.90;;;;;;5031136;28;46285;-60
2022/07/06 03:05:07;;;;;;;7.20;3.20;;;14.70;53.20;;;;;;5031921;28;46466;-61
2022/07/06 03:07:33;;;;;;;9.50;3.47;;;14.60;53.40;;;;;;5031657;28;46104;-60
2022/07/06 03:09:59;;;;;;;7.83;3.40;;;14.60;53.60;;;;;;5031102;28;46357;-60
2022/07/06 03:12:24;;;;;;;9.30;3.30;;;14.60;53.80;;;;;;5034123;28;46693;-62
2022/07/06 03:14:50;;;;;;;6.40;3.00;;;14.60;53.80;;;;;;5032908;28;46461;-60
2022/07/06 03:17:15;;;;;;;8.10;3.00;;;14.60;53.80;;;;;;5030607;28;46366;-59
2022/07/06 03:19:41;;;;;;;4.90;3.20;;;14.70;53.80;;;;;;5032089;28;46000;-59
2022/07/06 03:22:06;;;;;;;5.80;3.40;;;14.70;53.60;;;;;;5030564;28;47941;-61
2022/07/06 03:24:32;;;;;;;5.53;3.30;;;14.70;53.80;;;;;;5033331;28;46364;-60
2022/07/06 03:26:58;;;;;;;8.70;3.20;;;14.70;53.70;;;;;;5031777;28;46373;-60
2022/07/06 03:29:23;;;;;;;5.63;3.30;;;14.70;53.80;;;;;;5029510;28;47204;-60
2022/07/06 03:31:49;;;;;;;6.17;3.30;;;14.80;53.60;;;;;;5031999;28;46553;-60
2022/07/06 03:34:15;;;;;;;4.70;3.07;;;14.90;53.50;;;;;;5031554;28;46468;-60
2022/07/06 03:36:41;;;;;;;11.90;2.80;;;14.90;53.60;;;;;;5029696;28;46541;-60
2022/07/06 03:39:06;;;;;;;3.93;2.80;;;14.90;53.50;;;;;;5034020;28;46525;-60
2022/07/06 03:41:32;;;;;;;3.93;2.70;;;15.00;53.70;;;;;;5031319;28;47520;-60
2022/07/06 03:43:58;;;;;;;5.13;3.07;;;14.90;53.70;;;;;;5029114;28;46275;-60
2022/07/06 03:46:24;;;;;;;4.30;2.53;;;15.00;53.80;;;;;;5030504;28;46347;-59
2022/07/06 03:48:49;;;;;;;7.57;3.37;;;15.00;53.60;;;;;;5030648;28;46628;-60
2022/07/06 03:51:15;;;;;;;9.20;3.07;;;15.10;53.50;;;;;;5031728;28;47530;-59
2022/07/06 03:53:41;;;;;;;4.53;2.87;;;15.20;53.20;;;;;;5032723;28;46312;-61
2022/07/06 03:58:51;;;;;;;3.30;2.47;;;15.50;52.30;;;;;;5031824;28;45814;-60
2022/07/06 04:01:16;;;;;;;8.70;3.00;;;15.70;52.00;;;;;;5035879;28;47446;-60
2022/07/06 04:03:42;;;;;;;3.70;2.57;;;15.70;51.80;;;;;;5033337;28;46357;-60
2022/07/06 04:06:08;;;;;;;4.43;2.50;;;15.80;51.90;;;;;;5035712;28;46498;-60
2022/07/06 04:08:33;;;;;;;5.43;2.83;;;15.80;51.60;;;;;;5031791;28;46664;-60
2022/07/06 04:10:59;;;;;;;6.33;2.70;;;15.90;51.60;;;;;;5034139;28;47073;-59
2022/07/06 04:13:27;;;;;;;5.50;2.90;;;16.00;51.40;;;;;;5033613;28;46650;-61
2022/07/06 04:15:53;;;;;;;9.63;2.53;;;16.10;51.10;;;;;;5032950;28;45767;-59
2022/07/06 04:18:18;;;;;;;4.70;2.47;;;16.30;50.80;;;;;;5035093;28;46358;-60
2022/07/06 04:20:44;;;;;;;4.10;2.70;;;16.40;50.50;;;;;;5033631;28;46557;-60
2022/07/06 04:23:09;;;;;;;9.13;2.50;;;16.50;50.50;;;;;;5031949;28;46257;-59
2022/07/06 04:25:35;;;;;;;7.87;2.50;;;16.50;50.20;;;;;;5034974;28;46267;-60
2022/07/06 04:28:01;;;;;;;5.73;2.60;;;16.60;50.30;;;;;;5034995;28;46629;-60
2022/07/06 04:30:27;;;;;;;6.73;2.50;;;16.60;50.20;;;;;;5036371;28;46362;-60
2022/07/06 04:32:52;;;;;;;7.60;2.70;;;16.70;50.40;;;;;;5034552;28;46432;-60
2022/07/06 04:35:18;;;;;;;7.30;2.63;;;16.70;50.30;;;;;;5034531;28;46335;-60
2022/07/06 04:37:45;;;;;;;7.60;2.43;;;16.90;50.20;;;;;;5035082;28;46332;-60
2022/07/06 04:40:11;;;;;;;3.50;2.30;;;17.10;49.70;;;;;;5035784;28;47309;-59
2022/07/06 04:42:37;;;;;;;3.50;2.30;;;17.20;49.30;;;;;;5034891;28;46451;-60
2022/07/06 04:45:04;;;;;;;4.50;2.50;;;17.40;49.10;;;;;;5035615;28;46334;-60
2022/07/06 04:47:30;;;;;;;4.57;2.57;;;17.50;48.50;;;;;;5033958;28;46483;-60
2022/07/06 04:49:56;;;;;;;4.00;2.10;;;18.30;46.90;;;;;;5032729;28;46521;-61
2022/07/06 04:52:21;;;;;;;3.50;1.90;;;19.80;45.40;;;;;;5030795;28;46326;-60
2022/07/06 04:54:47;;;;;;;5.50;1.83;;;21.30;41.80;;;;;;5032177;28;46395;-60
2022/07/06 04:57:12;;;;;;;3.83;1.80;;;22.20;38.80;;;;;;5032841;28;46398;-60
2022/07/06 04:59:38;;;;;;;4.30;2.13;;;22.20;38.30;;;;;;5031223;28;46455;-61
2022/07/06 05:02:04;;;;;;;2.70;1.80;;;22.40;36.90;;;;;;5033127;28;46574;-61
2022/07/06 05:04:29;;;;;;;2.70;1.70;;;21.80;37.70;;;;;;5034224;28;46512;-60
2022/07/06 05:06:55;;;;;;;6.33;2.00;;;21.10;38.60;;;;;;5036174;28;45937;-62
2022/07/06 05:09:20;;;;;;;4.40;2.03;;;20.80;39.40;;;;;;5032475;28;46947;-61
2022/07/06 05:11:46;;;;;;;3.97;2.10;;;20.60;39.30;;;;;;5034610;28;46315;-60
2022/07/06 05:14:12;;;;;;;3.20;1.80;;;20.70;39.20;;;;;;5033641;28;46455;-61
2022/07/06 05:16:37;;;;;;;3.97;1.83;;;21.00;38.70;;;;;;5029970;28;46577;-59
2022/07/06 05:19:03;;;;;;;5.77;2.33;;;21.50;37.10;;;;;;5027847;28;46394;-61
2022/07/06 05:21:28;;;;;;;4.00;2.33;;;22.00;36.00;;;;;;5030122;28;46352;-60
2022/07/06 05:23:54;;;;;;;4.30;2.00;;;22.20;36.10;;;;;;5032111;28;46370;-60
2022/07/06 05:26:20;;;;;;;6.13;1.83;;;22.10;36.00;;;;;;5031514;28;45899;-61
2022/07/06 05:28:45;;;;;;;3.50;2.20;;;22.10;35.40;;;;;;5035124;28;46430;-60
2022/07/06 05:31:11;;;;;;;4.60;2.30;;;21.90;35.80;;;;;;5032891;28;45764;-60
2022/07/06 05:33:36;;;;;;;9.20;2.80;;;22.10;35.40;;;;;;5031246;28;46476;-60
2022/07/06 05:36:02;;;;;;;6.33;1.80;;;22.00;35.30;;;;;;5035252;28;46564;-60
2022/07/06 05:38:28;;;;;;;5.37;2.47;;;21.80;35.80;;;;;;5032135;28;46466;-59
2022/07/06 05:40:53;;;;;;;4.80;1.97;;;22.60;34.20;;;;;;5036030;28;46419;-59
2022/07/06 05:43:19;;;;;;;4.93;2.20;;;23.40;32.20;;;;;;5034151;28;46571;-58
2022/07/06 05:45:45;;;;;;;3.90;2.10;;;23.30;31.90;;;;;;5035955;28;46665;-61
2022/07/06 05:50:54;;;;;;;5.80;2.13;;;25.70;27.80;;;;;;5037252;28;46437;-61
2022/07/06 05:53:20;;;;;;;3.80;2.30;;;27.30;24.50;;;;;;5035903;28;46420;-58
2022/07/06 05:55:47;;;;;;;4.70;1.77;;;28.40;22.10;;;;;;5037331;28;46801;-59
2022/07/06 05:58:12;;;;;;;4.77;2.10;;;28.60;21.30;;;;;;5029194;28;46420;-60
2022/07/06 06:00:38;;;;;;;5.97;2.30;;;27.50;23.90;;;;;;5032082;28;46745;-59
2022/07/06 06:03:04;;;;;;;5.97;3.03;;;26.50;26.80;;;;;;5031973;28;46392;-60
2022/07/06 06:05:29;;;;;;;4.70;2.17;;;25.40;28.70;;;;;;5031359;28;46459;-60
2022/07/06 06:07:55;;;;;;;7.43;1.90;;;24.70;29.40;;;;;;5033067;28;47031;-61
2022/07/06 06:10:21;;;;;;;5.40;2.33;;;24.20;30.00;;;;;;5032593;28;46730;-60
2022/07/06 06:12:47;;;;;;;6.33;2.33;;;23.80;29.20;;;;;;5031580;28;46473;-60
2022/07/06 06:15:13;;;;;;;4.57;2.30;;;23.50;28.90;;;;;;5033003;28;46588;-61
2022/07/06 06:17:39;;;;;;;2.93;1.60;;;23.20;28.90;;;;;;5028963;28;46390;-60
2022/07/06 06:20:08;;;;;;;3.63;1.77;;;23.10;28.30;;;;;;5032139;28;46466;-60
2022/07/06 06:22:57;;;;;;;12.50;2.70;;;22.90;28.10;;;;;;5027375;28;46427;-59
2022/07/06 06:25:31;;;;;;;2.83;1.87;;;22.80;27.40;;;;;;5031663;28;46434;-61
2022/07/06 06:27:57;;;;;;;5.97;2.13;;;22.80;27.10;;;;;;5029134;28;46613;-60
2022/07/06 06:30:23;;;;;;;4.93;2.20;;;22.70;26.70;;;;;;5029716;28;46406;-61
2022/07/06 06:32:49;;;;;;;3.50;2.23;;;22.60;26.60;;;;;;5029930;28;45929;-60
2022/07/06 06:35:14;;;;;;;6.67;2.33;;;22.50;27.70;;;;;;5031933;28;46512;-61
2022/07/06 06:37:40;;;;;;;8.40;3.00;;;22.50;26.50;;;;;;5029281;28;46505;-61
2022/07/06 06:40:07;;;;;;;6.73;2.50;;;22.60;26.30;;;;;;5032620;28;46390;-59
2022/07/06 06:42:35;;;;;;;5.80;2.00;;;22.60;26.30;;;;;;5030895;28;46483;-60
2022/07/06 06:45:00;;;;;;;3.63;2.50;;;22.40;26.30;;;;;;5032223;28;46449;-60
2022/07/06 06:47:26;;;;;;;4.80;2.00;;;22.50;26.30;;;;;;5032834;28;46529;-59
2022/07/06 06:49:52;;;;;;;6.90;2.93;;;22.70;26.20;;;;;;5027629;28;46292;-59
2022/07/06 06:52:17;;;;;;;6.03;2.37;;;22.70;26.00;;;;;;5034115;28;46374;-60
2022/07/06 06:54:43;;;;;;;4.90;2.30;;;22.60;25.80;;;;;;5028657;28;46401;-60
2022/07/06 06:57:08;;;;;;;3.63;2.10;;;22.60;26.60;;;;;;5027464;28;46666;-60
2022/07/06 06:59:34;;;;;;;7.17;2.47;;;22.70;25.40;;;;;;5033019;28;46217;-61
2022/07/06 07:01:59;;;;;;;6.10;2.57;;;22.80;25.00;;;;;;5028414;28;46356;-60
2022/07/06 07:04:25;;;;;;;7.30;2.80;;;22.70;24.30;;;;;;5035568;28;46604;-60
2022/07/06 07:06:51;;;;;;;3.80;2.37;;;22.60;24.30;;;;;;5032278;28;46517;-60
2022/07/06 07:09:16;;;;;;;5.03;2.43;;;22.90;24.50;;;;;;5033292;28;46216;-60
2022/07/06 07:11:42;;;;;;;3.63;2.37;;;23.30;24.20;;;;;;5031562;28;46488;-60
2022/07/06 07:14:07;;;;;;;6.43;2.30;;;23.20;24.20;;;;;;5029380;28;46568;-61
2022/07/06 07:16:33;;;;;;;8.20;2.50;;;23.20;23.50;;;;;;5031170;28;46316;-60
2022/07/06 07:18:59;;;;;;;6.40;2.30;;;23.20;23.00;;;;;;5031919;28;46427;-61
2022/07/06 07:21:24;;;;;;;4.77;2.30;;;23.10;22.90;;;;;;5031510;28;46417;-60
2022/07/06 07:23:50;;;;;;;6.97;2.43;;;23.10;23.10;;;;;;5029405;28;45997;-60
2022/07/06 07:26:16;;;;;;;4.80;2.73;;;23.10;22.40;;;;;;5030567;28;48222;-61
2022/07/06 07:28:42;;;;;;;3.90;2.50;;;22.50;22.60;;;;;;5031777;28;46348;-60
2022/07/06 07:31:07;;;;;;;8.70;3.20;;;22.20;23.30;;;;;;5030726;28;46578;-59
2022/07/06 07:33:33;;;;;;;5.73;2.43;;;22.20;24.00;;;;;;5030503;28;46831;-59
2022/07/06 07:35:59;;;;;;;9.47;2.27;;;22.20;24.00;;;;;;5030906;28;47139;-59
2022/07/06 07:38:25;;;;;;;5.77;2.90;;;22.20;24.00;;;;;;5028410;28;46444;-59
2022/07/06 07:40:53;;;;;;;8.10;2.50;;;22.30;24.10;;;;;;5028244;28;46464;-60
2022/07/06 07:43:18;;;;;;;6.17;2.57;;;22.60;24.30;;;;;;5029599;28;46328;-59
2022/07/06 07:45:44;;;;;;;5.30;2.43;;;22.70;24.30;;;;;;5029803;28;46326;-59
2022/07/06 07:48:09;;;;;;;10.00;2.67;;;23.00;23.90;;;;;;5033306;28;46489;-58
2022/07/06 07:50:35;;;;;;;5.07;2.57;;;23.20;23.40;;;;;;5032521;28;46385;-61
2022/07/06 07:53:01;;;;;;;5.60;2.63;;;23.40;22.70;;;;;;5030772;28;46341;-59
2022/07/06 07:55:27;;;;;;;9.03;2.20;;;23.70;22.40;;;;;;5030139;28;47258;-59
2022/07/06 07:57:52;;;;;;;7.47;2.47;;;23.80;22.00;;;;;;5031619;28;46541;-59
2022/07/06 08:00:18;;;;;;;5.23;2.47;;;23.40;21.80;;;;;;5026172;28;46591;-60
2022/07/06 08:02:43;;;;;;;4.90;2.30;;;23.40;21.80;;;;;;5030183;28;46422;-59
2022/07/06 08:05:13;;;;;;;5.10;2.20;;;23.50;21.90;;;;;;5028947;28;46357;-58
2022/07/06 08:07:38;;;;;;;7.40;2.90;;;23.50;22.10;;;;;;5032422;28;46376;-60
2022/07/06 08:10:04;;;;;;;11.07;2.93;;;23.90;21.90;;;;;;5029187;28;46367;-60
2022/07/06 08:12:30;;;;;;;8.50;2.90;;;23.80;21.70;;;;;;5025409;28;46276;-60
2022/07/06 08:14:55;;;;;;;4.27;2.53;;;24.00;21.20;;;;;;5030881;28;46374;-60
2022/07/06 08:17:21;;;;;;;3.90;2.30;;;24.10;20.90;;;;;;5028709;28;46468;-60
2022/07/06 08:19:47;;;;;;;8.20;2.37;;;24.20;20.70;;;;;;5022976;28;46331;-60
2022/07/06 08:22:12;;;;;;;6.10;2.60;;;24.60;20.50;;;;;;5030693;28;46580;-60
2022/07/06 08:24:38;;;;;;;6.27;2.80;;;24.30;20.50;;;;;;5029575;28;46185;-60
2022/07/06 08:27:03;;;;;;;10.23;3.07;;;24.30;20.60;;;;;;5031687;28;46397;-59
2022/07/06 08:29:30;;;;;;;8.40;2.97;;;24.60;20.50;;;;;;5029218;28;46424;-60
2022/07/06 08:31:56;;;;;;;8.83;2.80;;;24.40;19.90;;;;;;5030364;28;46437;-60
2022/07/06 08:34:22;;;;;;;7.53;3.30;;;24.20;20.00;;;;;;5028060;28;46402;-60
2022/07/06 08:36:48;;;;;;;9.47;3.80;;;24.00;20.00;;;;;;5027165;28;46322;-61
2022/07/06 08:39:14;;;;;;;7.00;2.50;;;24.30;20.10;;;;;;5030038;28;46362;-59
2022/07/06 08:41:42;;;;;;;6.93;2.60;;;24.40;19.50;;;;;;5030413;28;46426;-60
2022/07/06 08:44:08;;;;;;;6.83;2.50;;;24.20;19.30;;;;;;5030882;28;46257;-60
2022/07/06 08:46:37;;;;;;;10.23;2.90;;;24.00;18.40;;;;;;5031742;28;46357;-60
2022/07/06 08:49:03;;;;;;;11.13;2.73;;;24.00;19.20;;;;;;5033036;28;46843;-60
2022/07/06 08:51:29;;;;;;;7.50;2.63;;;24.10;19.10;;;;;;5033068;28;46363;-59
2022/07/06 08:53:57;;;;;;;5.53;2.60;;;24.40;18.90;;;;;;5031388;28;46883;-60
2022/07/06 08:56:22;;;;;;;8.30;2.63;;;24.90;18.80;;;;;;5030007;28;46394;-61
2022/07/06 08:58:48;;;;;;;6.03;2.40;;;24.90;17.90;;;;;;5032845;28;46171;-61
2022/07/06 09:01:15;;;;;;;7.30;2.83;;;24.80;18.00;;;;;;5032344;28;46446;-60
2022/07/06 09:03:42;;;;;;;3.23;2.40;;;24.60;18.50;;;;;;5031466;28;48187;-60
2022/07/06 09:06:09;;;;;;;7.20;2.83;;;25.00;18.80;;;;;;5031252;28;46366;-59
2022/07/06 09:08:37;;;;;;;9.67;2.60;;;25.30;18.30;;;;;;5032455;28;46420;-62
2022/07/06 09:11:03;;;;;;;10.30;2.80;;;25.10;17.60;;;;;;5031820;28;46590;-59
2022/07/06 09:13:29;;;;;;;3.70;2.57;;;25.00;17.10;;;;;;5031138;28;47167;-59
2022/07/06 09:15:55;;;;;;;9.13;2.30;;;25.00;17.30;;;;;;5031765;28;45812;-60
2022/07/06 09:18:23;;;;;;;5.47;2.70;;;25.10;17.10;;;;;;5029759;28;46580;-59
2022/07/06 09:20:49;;;;;;;6.97;2.60;;;25.00;16.80;;;;;;5034062;28;46375;-60
2022/07/06 09:23:16;;;;;;;4.30;2.30;;;25.30;16.70;;;;;;5030180;28;46463;-59
2022/07/06 09:25:47;;;;;;;5.97;2.77;;;25.40;16.90;;;;;;5031596;28;46335;-59
2022/07/06 09:28:12;;;;;;;5.30;2.73;;;24.90;17.20;;;;;;5033760;28;45885;-59
2022/07/06 09:30:40;;;;;;;4.77;2.50;;;24.70;16.50;;;;;;5030912;28;46514;-59
2022/07/06 09:33:07;;;;;;;10.13;3.10;;;24.60;16.80;;;;;;5033470;28;48104;-60
2022/07/06 09:35:38;;;;;;;12.00;3.10;;;24.90;17.10;;;;;;5035053;28;46906;-62
2022/07/06 09:38:08;;;;;;;7.17;2.90;;;24.90;16.50;;;;;;5030632;28;46334;-60
2022/07/06 09:40:39;;;;;;;8.40;2.73;;;25.20;16.40;;;;;;5031285;28;46396;-62
2022/07/06 09:43:15;;;;;;;6.50;2.30;;;25.30;16.30;;;;;;5029945;28;46531;-61
2022/07/06 09:45:43;;;;;;;6.90;2.73;;;25.60;16.30;;;;;;5034202;28;45883;-60
2022/07/06 09:48:12;;;;;;;6.83;2.57;;;25.80;15.30;;;;;;5034811;28;45833;-62
2022/07/06 09:50:46;;;;;;;4.63;2.37;;;25.80;15.30;;;;;;5032482;28;46558;-60
2022/07/06 09:53:13;;;;;;;6.00;2.30;;;26.00;15.40;;;;;;5032222;28;46370;-60
2022/07/06 09:55:46;;;;;;;7.23;2.20;;;26.50;14.70;;;;;;5029844;28;46603;-62
2022/07/06 09:58:13;;;;;;;6.10;2.67;;;26.10;14.00;;;;;;5030244;28;46431;-60
2022/07/06 10:00:39;;;;;;;4.70;2.20;;;25.90;14.90;;;;;;5030158;28;46308;-61
2022/07/06 10:03:05;;;;;;;5.10;2.40;;;26.10;14.90;;;;;;5029758;28;47297;-61
2022/07/06 10:05:32;;;;;;;6.20;2.40;;;25.70;15.00;;;;;;5030168;28;46337;-59
2022/07/06 10:07:59;;;;;;;4.90;2.27;;;25.60;15.20;;;;;;5029909;28;45810;-61
2022/07/06 10:10:27;;;;;;;3.37;2.20;;;25.50;14.50;;;;;;5028420;28;46332;-60
2022/07/06 10:12:57;;;;;;;4.23;2.10;;;25.30;14.30;;;;;;5030453;28;46439;-60
2022/07/06 10:15:28;;;;;;;5.77;2.27;;;25.60;14.30;;;;;;5029610;28;46465;-60
2022/07/06 10:17:55;;;;;;;9.03;2.37;;;26.00;13.70;;;;;;5029448;28;46394;-60
2022/07/06 10:20:21;;;;;;;7.00;3.03;;;26.40;12.90;;;;;;5032914;28;46308;-61
2022/07/06 10:22:50;;;;;;;5.17;2.40;;;26.50;12.80;;;;;;5027105;28;46010;-60
2022/07/06 10:25:17;;;;;;;7.63;2.50;;;26.40;13.40;;;;;;5034381;28;46470;-61
2022/07/06 10:27:45;;;;;;;4.10;2.03;;;26.50;13.20;;;;;;5029919;28;46514;-60
2022/07/06 10:30:12;;;;;;;9.80;2.53;;;26.50;12.80;;;;;;5031363;28;46100;-61
2022/07/06 10:32:41;;;;;;;5.67;2.77;;;26.40;13.10;;;;;;5030665;28;46786;-61
2022/07/06 10:35:07;;;;;;;4.60;2.53;;;26.50;13.20;;;;;;5031295;28;46451;-60
2022/07/06 10:37:33;;;;;;;5.03;2.20;;;26.30;13.30;;;;;;5032176;28;46394;-60
2022/07/06 10:42:53;;;;;;;5.47;2.10;;;26.50;13.60;;;;;;5030711;28;46341;-61
2022/07/06 10:45:44;;;;;;;4.33;1.97;;;27.10;13.40;;;;;;5031743;28;46365;-60
2022/07/06 10:48:15;;;;;;;18.00;3.07;;;27.90;12.50;;;;;;5030861;28;46379;-59
2022/07/06 10:50:54;;;;;;;9.23;2.10;;;28.00;10.80;;;;;;5029575;28;46398;-60
2022/07/06 10:53:27;;;;;;;5.33;2.30;;;27.60;11.10;;;;;;5030560;28;46230;-62
2022/07/06 10:55:57;;;;;;;5.43;2.43;;;27.80;11.50;;;;;;5029100;28;46387;-59
2022/07/06 10:58:41;;;;;;;13.97;2.60;;;28.10;11.00;;;;;;5029263;28;46356;-60
2022/07/06 11:01:09;;;;;;;6.97;2.07;;;28.10;10.20;;;;;;5028212;28;46447;-59
2022/07/06 11:03:34;;;;;;;8.00;2.57;;;28.10;10.60;;;;;;5027178;28;47872;-59
2022/07/06 11:06:21;;;;;;;4.67;1.70;;;27.80;10.40;;;;;;5032684;28;46407;-59
2022/07/06 11:08:48;;;;;;;6.27;2.20;;;27.30;11.00;;;;;;5026720;28;46362;-59
2022/07/06 11:11:19;;;;;;;3.30;2.10;;;26.90;10.40;;;;;;5027815;28;46390;-59
2022/07/06 11:14:01;;;;;;;5.00;2.30;;;26.60;10.70;;;;;;5027912;28;46374;-59
2022/07/06 11:16:29;;;;;;;11.17;2.33;;;27.20;11.00;;;;;;5026879;28;46710;-59
2022/07/06 11:19:01;;;;;;;4.03;2.00;;;27.30;12.30;;;;;;5029341;28;46199;-59
2022/07/06 11:21:57;;;;;;;5.20;2.10;;;27.50;11.30;;;;;;5034935;28;46577;-61
2022/07/06 11:24:28;;;;;;;5.13;2.30;;;27.50;11.30;;;;;;5029582;28;46648;-60
2022/07/06 11:26:55;;;;;;;2.80;1.87;;;27.60;11.10;;;;;;5030013;28;45905;-59
2022/07/06 11:29:23;;;;;;;4.80;2.27;;;28.10;11.00;;;;;;5029969;28;46570;-59
2022/07/06 11:31:52;;;;;;;4.37;2.03;;;28.10;10.40;;;;;;5027799;28;46458;-59
2022/07/06 11:34:26;;;;;;;5.20;2.10;;;27.70;10.50;;;;;;5029555;28;46950;-60
2022/07/06 11:37:07;;;;;;;4.73;2.30;;;27.10;10.40;;;;;;5026675;28;46392;-60
2022/07/06 11:39:35;;;;;;;5.37;2.00;;;26.50;11.00;;;;;;5027921;28;46829;-58
2022/07/06 11:42:03;;;;;;;5.50;2.17;;;26.20;11.10;;;;;;5027981;28;46294;-59
2022/07/06 11:44:29;;;;;;;5.40;2.27;;;26.60;11.60;;;;;;5028365;28;46382;-58
2022/07/06 11:47:01;;;;;;;3.87;2.03;;;27.20;11.50;;;;;;5024471;28;46364;-60
2022/07/06 11:49:27;;;;;;;3.50;1.90;;;27.60;10.80;;;;;;5028941;28;46458;-60
2022/07/06 11:51:53;;;;;;;5.50;2.47;;;27.30;10.70;;;;;;5025758;28;46582;-60
2022/07/06 11:54:20;;;;;;;6.90;2.20;;;27.20;11.20;;;;;;5027061;28;46627;-59
2022/07/06 11:56:51;;;;;;;5.07;2.33;;;27.20;11.10;;;;;;5032948;28;46727;-59
2022/07/06 11:59:24;;;;;;;6.50;2.87;;;27.20;10.90;;;;;;5030498;28;46376;-59
2022/07/06 12:01:57;;;;;;;4.20;2.03;;;27.20;11.70;;;;;;5030764;28;46558;-59
2022/07/06 12:04:24;;;;;;;3.80;2.20;;;27.20;10.90;;;;;;5035827;28;46378;-58
2022/07/06 12:06:50;;;;;;;13.73;2.17;;;27.50;10.80;;;;;;5028886;28;45916;-60
2022/07/06 12:09:15;;;;;;;7.27;1.87;;;28.10;10.10;;;;;;5031903;28;46426;-59
2022/07/06 12:11:46;;;;;;;4.00;2.17;;;28.40;9.30;;;;;;5029982;28;46624;-59
2022/07/06 12:14:19;;;;;;;3.30;1.80;;;28.30;9.30;;;;;;5032464;28;46433;-59
2022/07/06 12:16:47;;;;;;;5.13;1.80;;;28.10;9.40;;;;;;5032047;28;46353;-60
2022/07/06 12:19:14;;;;;;;4.93;2.00;;;27.90;9.70;;;;;;5032465;28;46383;-59
2022/07/06 12:21:51;;;;;;;7.23;2.47;;;27.90;10.20;;;;;;5033759;28;46665;-59
2022/07/06 12:24:28;;;;;;;6.90;1.90;;;27.80;9.90;;;;;;5032329;28;46697;-59
2022/07/06 12:26:55;;;;;;;6.13;2.00;;;27.50;10.30;;;;;;5030112;28;46648;-59
2022/07/06 12:29:22;;;;;;;12.53;2.30;;;27.10;10.30;;;;;;5031384;28;46406;-59
2022/07/06 12:31:52;;;;;;;4.57;2.30;;;26.90;11.80;;;;;;5031087;28;46502;-60
2022/07/06 12:34:18;;;;;;;6.23;2.03;;;26.40;11.30;;;;;;5032868;28;46418;-59
2022/07/06 12:36:55;;;;;;;6.03;2.07;;;26.10;12.00;;;;;;5034066;28;46422;-60
2022/07/06 12:39:23;;;;;;;6.90;2.23;;;25.50;12.70;;;;;;5033597;28;46457;-60
2022/07/06 12:42:04;;;;;;;8.80;2.77;;;25.20;13.20;;;;;;5034123;28;46496;-59
2022/07/06 12:44:31;;;;;;;4.30;2.07;;;25.10;13.60;;;;;;5032756;28;47249;-59
2022/07/06 12:47:04;;;;;;;4.97;2.30;;;25.40;13.70;;;;;;5033034;28;46410;-59
2022/07/06 12:49:30;;;;;;;5.67;1.90;;;26.00;13.30;;;;;;5029420;28;46382;-59
2022/07/06 12:52:07;;;;;;;3.20;2.10;;;26.00;12.70;;;;;;5035563;28;46453;-60
2022/07/06 12:54:34;;;;;;;4.03;2.00;;;26.20;12.80;;;;;;5031953;28;46417;-59